Time;durP1;ratioP1;P1;durP2;ratioP2;P2;SDS_P1;SDS_P2;PMS_P1;PMS_P2;Temp;Humidity;BMP_temperature;BMP_pressure;BME280_temperature;BME280_humidity;BME280_pressure;Samples;Min_cycle;Max_cycle;Signal;HPM_P1;HPM_P2
2021/12/11 00:02:10;;;;;;;1.80;1.70;;;1.60;98.20;;;;;;5072583;28;20479;-76
2021/12/11 00:04:40;;;;;;;1.70;1.60;;;1.60;98.20;;;;;;5082196;28;20457;-76
2021/12/11 00:07:10;;;;;;;1.70;1.60;;;1.50;98.20;;;;;;5071729;28;20479;-75
2021/12/11 00:09:43;;;;;;;1.70;1.60;;;1.50;98.20;;;;;;5083155;28;20457;-75
2021/12/11 00:12:15;;;;;;;1.70;1.60;;;1.50;98.20;;;;;;5078755;28;20496;-75
2021/12/11 00:14:46;;;;;;;1.80;1.70;;;1.40;98.20;;;;;;5086528;28;20831;-75
2021/12/11 00:17:21;;;;;;;1.70;1.60;;;1.40;98.20;;;;;;5077230;28;20476;-75
2021/12/11 00:19:48;;;;;;;1.70;1.60;;;1.30;98.20;;;;;;5079463;28;20464;-75
2021/12/11 00:22:21;;;;;;;1.70;1.50;;;1.30;98.20;;;;;;5070906;28;20484;-75
2021/12/11 00:24:50;;;;;;;1.70;1.60;;;1.30;98.20;;;;;;5086315;28;20449;-76
2021/12/11 00:27:21;;;;;;;1.80;1.70;;;1.20;98.20;;;;;;5080474;28;20878;-75
2021/12/11 00:29:50;;;;;;;1.70;1.60;;;1.20;98.20;;;;;;5085950;28;20460;-75
2021/12/11 00:32:23;;;;;;;1.90;1.80;;;1.20;98.20;;;;;;5083914;28;20498;-75
2021/12/11 00:34:53;;;;;;;1.70;1.60;;;1.10;98.20;;;;;;5086096;28;20467;-75
2021/12/11 00:37:23;;;;;;;1.70;1.60;;;1.10;98.20;;;;;;5078587;28;20472;-75
2021/12/11 00:39:53;;;;;;;1.83;1.73;;;1.10;98.20;;;;;;5087947;28;20869;-75
2021/12/11 00:42:23;;;;;;;1.70;1.60;;;1.10;98.20;;;;;;5068622;28;20477;-75
2021/12/11 00:44:53;;;;;;;1.70;1.60;;;1.00;98.20;;;;;;5083236;28;20547;-76
2021/12/11 00:47:22;;;;;;;1.70;1.60;;;1.00;98.20;;;;;;5081076;28;20580;-75
2021/12/11 00:49:53;;;;;;;1.70;1.60;;;1.00;98.20;;;;;;5085648;28;20461;-76
2021/12/11 00:52:28;;;;;;;1.90;1.80;;;1.10;98.20;;;;;;5070698;28;20485;-75
2021/12/11 00:54:58;;;;;;;1.70;1.60;;;1.10;98.20;;;;;;5081497;28;20468;-75
2021/12/11 00:57:25;;;;;;;1.80;1.70;;;1.10;98.20;;;;;;5078135;28;20856;-75
2021/12/11 01:00:06;;;;;;;1.77;1.67;;;1.20;98.20;;;;;;5085761;28;20501;-75
2021/12/11 01:02:33;;;;;;;1.70;1.60;;;1.30;98.20;;;;;;5080180;28;20480;-73
2021/12/11 01:05:02;;;;;;;1.90;1.80;;;1.30;98.20;;;;;;5084537;28;20464;-73
2021/12/11 01:07:32;;;;;;;1.70;1.60;;;1.40;98.20;;;;;;5071006;28;21003;-73
2021/12/11 01:10:05;;;;;;;1.70;1.60;;;1.40;98.20;;;;;;5086153;28;20547;-73
2021/12/11 01:12:42;;;;;;;1.70;1.60;;;1.50;98.20;;;;;;5070022;28;20504;-72
2021/12/11 01:15:15;;;;;;;1.70;1.60;;;1.50;98.20;;;;;;5084724;28;20460;-72
2021/12/11 01:17:58;;;;;;;1.67;1.50;;;1.60;98.20;;;;;;5071473;28;20480;-71
2021/12/11 01:20:34;;;;;;;1.80;1.70;;;1.60;98.20;;;;;;5085580;28;20457;-72
2021/12/11 01:23:03;;;;;;;1.70;1.60;;;1.70;98.20;;;;;;5087048;28;21081;-72
2021/12/11 01:25:31;;;;;;;1.70;1.60;;;1.70;98.20;;;;;;5083514;28;20465;-71
2021/12/11 01:28:01;;;;;;;1.63;1.50;;;1.70;98.20;;;;;;5066758;28;20475;-71
2021/12/11 01:30:33;;;;;;;1.73;1.63;;;1.70;98.20;;;;;;5081516;28;20472;-72
2021/12/11 01:33:02;;;;;;;1.70;1.60;;;1.80;98.20;;;;;;5085319;28;20479;-72
2021/12/11 01:35:29;;;;;;;1.70;1.60;;;1.80;98.20;;;;;;5080756;28;20456;-71
2021/12/11 01:38:02;;;;;;;1.67;1.57;;;1.80;98.20;;;;;;5083015;28;20482;-72
2021/12/11 01:40:31;;;;;;;1.70;1.60;;;1.80;98.20;;;;;;5080269;28;20461;-72
2021/12/11 01:42:59;;;;;;;1.63;1.50;;;1.90;98.20;;;;;;5079358;28;20506;-72
2021/12/11 01:45:27;;;;;;;1.70;1.50;;;1.90;98.20;;;;;;5084716;28;20521;-72
2021/12/11 01:47:54;;;;;;;1.67;1.50;;;1.90;98.20;;;;;;5083822;28;21207;-72
2021/12/11 01:50:25;;;;;;;1.70;1.60;;;1.90;98.20;;;;;;5084154;28;20950;-72
2021/12/11 01:52:58;;;;;;;1.60;1.50;;;1.90;98.20;;;;;;5070665;28;20553;-72
2021/12/11 01:55:35;;;;;;;1.70;1.60;;;2.00;98.20;;;;;;5082994;28;20456;-72
2021/12/11 01:58:06;;;;;;;1.63;1.53;;;2.00;98.20;;;;;;5082460;28;20480;-72
2021/12/11 02:00:38;;;;;;;1.77;1.67;;;2.00;98.20;;;;;;5085231;28;20461;-72
2021/12/11 02:03:11;;;;;;;1.63;1.50;;;2.00;98.20;;;;;;5067111;28;21078;-72
2021/12/11 02:05:40;;;;;;;1.70;1.60;;;2.00;98.20;;;;;;5083264;28;20457;-72
2021/12/11 02:08:10;;;;;;;2.97;2.77;;;2.10;98.20;;;;;;5072774;28;20489;-73
2021/12/11 02:10:39;;;;;;;1.70;1.60;;;2.10;98.20;;;;;;5086508;28;20956;-72
2021/12/11 02:13:10;;;;;;;1.70;1.60;;;2.10;98.20;;;;;;5086453;28;20551;-72
2021/12/11 02:15:46;;;;;;;1.60;1.50;;;2.20;98.20;;;;;;5089901;28;21142;-73
2021/12/11 02:18:18;;;;;;;1.63;1.50;;;2.20;98.20;;;;;;5073290;28;20495;-73
2021/12/11 02:20:51;;;;;;;1.73;1.63;;;2.20;98.20;;;;;;5080162;28;20990;-73
2021/12/11 02:23:19;;;;;;;1.63;1.50;;;2.30;98.20;;;;;;5052151;28;20484;-73
2021/12/11 02:25:50;;;;;;;1.60;1.50;;;2.30;98.20;;;;;;5066895;28;20453;-73
2021/12/11 02:28:21;;;;;;;1.67;1.50;;;2.30;98.20;;;;;;5043134;28;20569;-73
2021/12/11 02:31:00;;;;;;;1.70;1.60;;;2.40;98.20;;;;;;5068358;28;20460;-73
2021/12/11 02:33:30;;;;;;;1.63;1.50;;;2.40;98.20;;;;;;5095330;28;20984;-73
2021/12/11 02:36:09;;;;;;;1.63;1.50;;;2.40;98.20;;;;;;5073919;28;20517;-73
2021/12/11 02:38:43;;;;;;;1.70;1.50;;;2.40;98.20;;;;;;5066971;28;20517;-73
2021/12/11 02:41:13;;;;;;;1.70;1.60;;;2.50;98.20;;;;;;5059498;28;21002;-73
2021/12/11 02:43:44;;;;;;;1.60;1.40;;;2.50;98.20;;;;;;5080355;28;20465;-73
2021/12/11 02:46:16;;;;;;;1.60;1.50;;;2.50;98.20;;;;;;5075429;28;20484;-73
2021/12/11 02:48:48;;;;;;;1.67;1.50;;;2.50;98.20;;;;;;5081191;28;20461;-73
2021/12/11 02:51:18;;;;;;;1.70;1.60;;;2.60;98.20;;;;;;5074921;28;20530;-73
2021/12/11 02:53:53;;;;;;;1.60;1.50;;;2.60;98.20;;;;;;5083161;28;20460;-73
2021/12/11 02:56:24;;;;;;;1.67;1.50;;;2.60;98.20;;;;;;5076762;28;20507;-73
2021/12/11 02:58:57;;;;;;;1.70;1.60;;;2.60;98.20;;;;;;5082399;28;20507;-73
2021/12/11 03:01:28;;;;;;;1.67;1.50;;;2.60;98.20;;;;;;5076025;28;20550;-73
2021/12/11 03:04:05;;;;;;;1.60;1.47;;;2.60;98.20;;;;;;5081288;28;20468;-73
2021/12/11 03:06:39;;;;;;;1.67;1.50;;;2.70;98.20;;;;;;5072654;28;20542;-73
2021/12/11 03:09:11;;;;;;;1.60;1.47;;;2.70;98.20;;;;;;5080984;28;20453;-73
2021/12/11 03:11:38;;;;;;;1.60;1.50;;;2.70;98.20;;;;;;5076349;28;20487;-73
2021/12/11 03:14:08;;;;;;;1.67;1.50;;;2.70;98.20;;;;;;5082959;28;20461;-74
2021/12/11 03:16:36;;;;;;;1.63;1.50;;;2.70;98.20;;;;;;5076666;27;20483;-73
2021/12/11 03:19:06;;;;;;;1.60;1.50;;;2.70;98.20;;;;;;5077332;28;20485;-74
2021/12/11 03:21:33;;;;;;;1.63;1.40;;;2.70;98.20;;;;;;5059538;28;20477;-73
2021/12/11 03:24:01;;;;;;;1.60;1.50;;;2.80;98.20;;;;;;5073217;28;20537;-73
2021/12/11 03:26:30;;;;;;;1.60;1.40;;;2.80;98.20;;;;;;5065414;28;20529;-74
2021/12/11 03:28:57;;;;;;;1.60;1.37;;;2.80;98.20;;;;;;5087395;28;21094;-73
2021/12/11 03:31:24;;;;;;;1.63;1.40;;;2.80;98.20;;;;;;5061673;28;20515;-74
2021/12/11 03:33:54;;;;;;;1.67;1.50;;;2.80;98.20;;;;;;5079225;28;20465;-74
2021/12/11 03:36:23;;;;;;;1.70;1.50;;;2.80;98.20;;;;;;5066493;28;20499;-74
2021/12/11 03:38:53;;;;;;;1.70;1.57;;;2.80;98.20;;;;;;5083216;28;20492;-74
2021/12/11 03:41:22;;;;;;;1.63;1.50;;;2.80;98.20;;;;;;5059203;28;20476;-74
2021/12/11 03:43:52;;;;;;;1.67;1.50;;;2.80;98.20;;;;;;5074494;28;20469;-74
2021/12/11 03:46:20;;;;;;;1.77;1.67;;;2.80;98.20;;;;;;5060190;28;20542;-74
2021/12/11 03:48:52;;;;;;;1.70;1.60;;;2.80;98.20;;;;;;5080497;28;20460;-74
2021/12/11 03:51:24;;;;;;;1.70;1.60;;;2.90;98.20;;;;;;5075769;27;20479;-74
2021/12/11 03:53:52;;;;;;;1.60;1.40;;;2.90;98.20;;;;;;5090125;28;20456;-74
2021/12/11 03:56:20;;;;;;;2.03;1.83;;;2.80;98.20;;;;;;5068321;28;20476;-74
2021/12/11 03:58:50;;;;;;;1.60;1.47;;;2.80;98.20;;;;;;5082999;28;21486;-74
2021/12/11 04:01:26;;;;;;;1.60;1.43;;;2.80;98.20;;;;;;5069982;28;20469;-74
2021/12/11 04:03:56;;;;;;;1.60;1.30;;;2.90;98.20;;;;;;5092998;28;20496;-74
2021/12/11 04:06:23;;;;;;;1.63;1.50;;;2.90;98.20;;;;;;5075428;28;20516;-74
2021/12/11 04:08:51;;;;;;;1.70;1.60;;;2.90;98.20;;;;;;5095198;28;21064;-74
2021/12/11 04:11:22;;;;;;;1.70;1.40;;;2.90;98.20;;;;;;5068458;28;21215;-74
2021/12/11 04:13:52;;;;;;;1.70;1.50;;;2.90;98.20;;;;;;5084316;28;20460;-74
2021/12/11 04:16:21;;;;;;;1.70;1.50;;;2.90;98.20;;;;;;5079266;27;20468;-74
2021/12/11 04:18:48;;;;;;;1.63;1.40;;;2.90;98.20;;;;;;5095553;28;20516;-74
2021/12/11 04:21:16;;;;;;;1.67;1.50;;;2.90;98.20;;;;;;5072581;28;20476;-74
2021/12/11 04:23:44;;;;;;;1.70;1.53;;;2.90;98.20;;;;;;5080102;28;20464;-74
2021/12/11 04:26:11;;;;;;;1.70;1.50;;;2.90;98.20;;;;;;5072376;27;20475;-74
2021/12/11 04:28:40;;;;;;;1.60;1.40;;;3.00;98.20;;;;;;5094633;28;20996;-75
2021/12/11 04:31:11;;;;;;;1.67;1.47;;;3.00;98.20;;;;;;5071027;28;20648;-74
2021/12/11 04:33:43;;;;;;;1.63;1.40;;;3.00;98.20;;;;;;5081167;28;20469;-74
2021/12/11 04:36:14;;;;;;;1.70;1.50;;;3.00;98.20;;;;;;5077092;27;20506;-74
2021/12/11 04:38:42;;;;;;;1.70;1.50;;;3.00;98.20;;;;;;5093353;28;20489;-74
2021/12/11 04:41:10;;;;;;;1.63;1.40;;;3.00;98.20;;;;;;5076141;27;20855;-74
2021/12/11 04:43:37;;;;;;;1.60;1.50;;;3.00;98.20;;;;;;5096695;28;20460;-74
2021/12/11 04:46:07;;;;;;;1.60;1.40;;;3.00;98.20;;;;;;5071116;28;20460;-74
2021/12/11 04:48:42;;;;;;;1.70;1.60;;;3.00;98.20;;;;;;5078213;28;20545;-74
2021/12/11 04:51:13;;;;;;;1.70;1.60;;;3.10;98.20;;;;;;5074446;28;20483;-74
2021/12/11 04:53:54;;;;;;;1.67;1.50;;;3.10;98.20;;;;;;5082773;28;20465;-74
2021/12/11 04:56:49;;;;;;;1.70;1.50;;;3.00;98.20;;;;;;5074337;28;20480;-74
2021/12/11 04:59:31;;;;;;;1.70;1.40;;;3.00;98.20;;;;;;5092224;28;20484;-74
2021/12/11 05:02:13;;;;;;;1.70;1.60;;;3.00;98.20;;;;;;5073023;28;21243;-75
2021/12/11 05:04:53;;;;;;;1.70;1.53;;;3.00;98.20;;;;;;5070613;28;20480;-74
2021/12/11 05:07:30;;;;;;;1.70;1.50;;;3.10;98.20;;;;;;5063130;28;21065;-74
2021/12/11 05:10:06;;;;;;;1.60;1.40;;;3.10;98.20;;;;;;5066664;28;20521;-74
2021/12/11 05:12:35;;;;;;;1.67;1.57;;;3.10;98.20;;;;;;5065403;28;20468;-74
2021/12/11 05:15:08;;;;;;;1.63;1.40;;;3.10;98.20;;;;;;5062011;28;20466;-75
2021/12/11 05:17:35;;;;;;;3.10;2.90;;;3.00;98.20;;;;;;5064087;28;20485;-74
2021/12/11 05:20:02;;;;;;;1.67;1.50;;;3.10;98.20;;;;;;5062792;28;20542;-74
2021/12/11 05:22:31;;;;;;;1.60;1.40;;;3.10;98.20;;;;;;5062879;28;20477;-74
2021/12/11 05:24:58;;;;;;;1.63;1.40;;;3.10;98.20;;;;;;5064768;28;20544;-74
2021/12/11 05:27:25;;;;;;;1.67;1.40;;;3.10;98.20;;;;;;5076154;28;20490;-75
2021/12/11 05:29:53;;;;;;;1.70;1.50;;;3.10;98.20;;;;;;5086215;28;20463;-75
2021/12/11 05:32:23;;;;;;;1.60;1.40;;;3.10;98.20;;;;;;5074095;28;20559;-75
2021/12/11 05:34:51;;;;;;;1.70;1.50;;;3.10;98.20;;;;;;5069105;28;20465;-74
2021/12/11 05:37:18;;;;;;;1.63;1.40;;;3.10;98.20;;;;;;5061889;28;20946;-75
2021/12/11 05:39:47;;;;;;;1.67;1.40;;;3.10;98.20;;;;;;5062791;28;20527;-75
2021/12/11 05:42:14;;;;;;;1.70;1.40;;;3.20;98.20;;;;;;5066784;28;20533;-75
2021/12/11 05:44:42;;;;;;;1.67;1.40;;;3.20;98.20;;;;;;5070071;28;20473;-75
2021/12/11 05:47:10;;;;;;;1.60;1.40;;;3.20;98.20;;;;;;5066728;28;20485;-75
2021/12/11 05:49:39;;;;;;;1.63;1.40;;;3.20;98.20;;;;;;5070550;28;20485;-75
2021/12/11 05:52:09;;;;;;;1.60;1.50;;;3.20;98.20;;;;;;5061692;28;20506;-75
2021/12/11 05:54:36;;;;;;;1.60;1.40;;;3.20;98.20;;;;;;5069634;28;20456;-75
2021/12/11 05:57:09;;;;;;;1.63;1.40;;;3.20;98.20;;;;;;5059364;28;20481;-75
2021/12/11 05:59:37;;;;;;;1.70;1.50;;;3.20;98.20;;;;;;5088715;28;20488;-75
2021/12/11 06:02:09;;;;;;;1.70;1.43;;;3.20;98.20;;;;;;5076205;27;20541;-75
2021/12/11 06:04:37;;;;;;;1.60;1.40;;;3.20;98.20;;;;;;5074666;28;20803;-75
2021/12/11 06:07:07;;;;;;;1.60;1.40;;;3.30;98.20;;;;;;5068941;28;20488;-75
2021/12/11 06:09:35;;;;;;;1.67;1.40;;;3.30;98.20;;;;;;5061326;28;20588;-75
2021/12/11 06:12:07;;;;;;;1.60;1.40;;;3.30;98.20;;;;;;5062225;28;20562;-75
2021/12/11 06:14:35;;;;;;;1.67;1.40;;;3.30;98.20;;;;;;5066373;28;21079;-75
2021/12/11 06:17:05;;;;;;;1.60;1.40;;;3.30;98.20;;;;;;5059946;28;20481;-75
2021/12/11 06:19:33;;;;;;;1.60;1.40;;;3.30;98.20;;;;;;5067801;28;20477;-75
2021/12/11 06:22:01;;;;;;;1.60;1.40;;;3.30;98.20;;;;;;5074617;28;20483;-75
2021/12/11 06:24:30;;;;;;;1.60;1.47;;;3.30;98.20;;;;;;5073612;28;20496;-75
2021/12/11 06:26:58;;;;;;;1.63;1.40;;;3.30;98.20;;;;;;5061622;28;20559;-75
2021/12/11 06:29:28;;;;;;;1.60;1.40;;;3.30;98.20;;;;;;5067811;28;20461;-75
2021/12/11 06:31:56;;;;;;;1.60;1.40;;;3.30;98.20;;;;;;5073595;28;20479;-75
2021/12/11 06:34:23;;;;;;;1.60;1.40;;;3.40;98.20;;;;;;5085331;28;21093;-75
2021/12/11 06:36:51;;;;;;;1.70;1.50;;;3.40;98.20;;;;;;5078094;27;20490;-76
2021/12/11 06:39:20;;;;;;;1.63;1.40;;;3.40;98.20;;;;;;5074582;28;20543;-75
2021/12/11 06:41:56;;;;;;;1.70;1.50;;;3.40;98.20;;;;;;5066272;28;20483;-75
2021/12/11 06:44:27;;;;;;;1.60;1.40;;;3.40;98.20;;;;;;5078858;28;20469;-76
2021/12/11 06:46:57;;;;;;;1.63;1.40;;;3.40;98.20;;;;;;5069738;28;20475;-75
2021/12/11 06:49:25;;;;;;;1.63;1.40;;;3.40;98.20;;;;;;5079802;28;20460;-76
2021/12/11 06:51:53;;;;;;;1.60;1.40;;;3.40;98.20;;;;;;5068614;28;21025;-75
2021/12/11 06:54:20;;;;;;;1.67;1.40;;;3.40;98.20;;;;;;5079702;28;20810;-75
2021/12/11 06:56:48;;;;;;;1.60;1.40;;;3.40;98.20;;;;;;5068810;28;20491;-75
2021/12/11 06:59:15;;;;;;;1.67;1.47;;;3.40;98.20;;;;;;5080957;28;20466;-75
2021/12/11 07:01:43;;;;;;;1.63;1.40;;;3.40;98.20;;;;;;5063543;28;20491;-75
2021/12/11 07:04:11;;;;;;;1.60;1.40;;;3.40;98.20;;;;;;5075584;28;20533;-75
2021/12/11 07:06:43;;;;;;;1.60;1.40;;;3.40;98.20;;;;;;5068947;28;21206;-75
2021/12/11 07:09:12;;;;;;;1.70;1.50;;;3.40;98.20;;;;;;5083670;28;20468;-75
2021/12/11 07:11:42;;;;;;;1.60;1.40;;;3.40;98.20;;;;;;5070755;28;20479;-75
2021/12/11 07:14:10;;;;;;;1.60;1.40;;;3.40;98.20;;;;;;5075895;28;20947;-75
2021/12/11 07:16:38;;;;;;;1.60;1.40;;;3.40;98.20;;;;;;5060031;28;20583;-76
2021/12/11 07:19:07;;;;;;;1.73;1.63;;;3.40;98.20;;;;;;5076842;28;20461;-75
2021/12/11 07:21:36;;;;;;;1.70;1.60;;;3.40;98.20;;;;;;5064094;28;20569;-75
2021/12/11 07:24:04;;;;;;;1.60;1.40;;;3.40;98.20;;;;;;5082467;28;20916;-75
2021/12/11 07:26:34;;;;;;;1.63;1.40;;;3.40;98.20;;;;;;5069545;28;20487;-75
2021/12/11 07:29:10;;;;;;;1.60;1.47;;;3.30;98.20;;;;;;5081388;28;20561;-75
2021/12/11 07:31:38;;;;;;;1.60;1.40;;;3.30;98.20;;;;;;5073701;28;20555;-77
2021/12/11 07:34:06;;;;;;;1.60;1.50;;;3.30;98.20;;;;;;5089778;28;20452;-75
2021/12/11 07:36:33;;;;;;;1.60;1.40;;;3.30;98.20;;;;;;5074585;28;20483;-75
2021/12/11 07:39:05;;;;;;;1.67;1.40;;;3.30;98.20;;;;;;5089734;28;20979;-75
2021/12/11 07:41:32;;;;;;;1.60;1.40;;;3.30;98.20;;;;;;5068234;28;20530;-75
2021/12/11 07:44:00;;;;;;;1.67;1.40;;;3.30;98.20;;;;;;5080985;28;20541;-76
2021/12/11 07:46:30;;;;;;;1.70;1.50;;;3.30;98.20;;;;;;5071792;28;20476;-75
2021/12/11 07:48:58;;;;;;;1.60;1.50;;;3.40;98.20;;;;;;5080570;28;20893;-75
2021/12/11 07:51:27;;;;;;;1.60;1.40;;;3.30;98.20;;;;;;5074891;28;21532;-76
2021/12/11 07:53:55;;;;;;;1.70;1.50;;;3.30;98.20;;;;;;5091959;28;20461;-76
2021/12/11 07:56:25;;;;;;;1.60;1.40;;;3.30;98.20;;;;;;5074941;28;20471;-76
2021/12/11 07:58:56;;;;;;;1.60;1.40;;;3.40;98.20;;;;;;5093281;28;20545;-80
2021/12/11 08:01:24;;;;;;;1.60;1.40;;;3.40;98.20;;;;;;5071798;28;20482;-75
2021/12/11 08:03:51;;;;;;;1.60;1.40;;;3.40;98.20;;;;;;5091557;28;20548;-75
2021/12/11 08:06:18;;;;;;;1.63;1.40;;;3.40;98.20;;;;;;5068312;28;20476;-75
2021/12/11 08:08:46;;;;;;;1.60;1.40;;;3.40;98.20;;;;;;5068461;28;20847;-74
2021/12/11 08:11:18;;;;;;;1.70;1.60;;;3.40;98.20;;;;;;5053484;28;20580;-74
2021/12/11 08:13:50;;;;;;;1.67;1.40;;;3.40;98.20;;;;;;5074429;28;20589;-74
2021/12/11 08:16:22;;;;;;;1.63;1.53;;;3.40;98.20;;;;;;5054294;28;20526;-73
2021/12/11 08:18:50;;;;;;;1.70;1.40;;;3.40;98.20;;;;;;5079162;28;20539;-73
2021/12/11 08:21:18;;;;;;;1.60;1.40;;;3.50;98.20;;;;;;5067672;28;20472;-73
2021/12/11 08:23:47;;;;;;;1.67;1.40;;;3.50;98.20;;;;;;5076755;28;20460;-73
2021/12/11 08:26:18;;;;;;;1.67;1.40;;;3.50;98.20;;;;;;5064805;28;20588;-73
2021/12/11 08:28:50;;;;;;;1.63;1.40;;;3.50;98.20;;;;;;5065045;28;20841;-73
2021/12/11 08:31:18;;;;;;;1.60;1.37;;;3.50;98.20;;;;;;5046574;28;20851;-73
2021/12/11 08:33:46;;;;;;;1.70;1.43;;;3.50;98.20;;;;;;5067345;28;20469;-73
2021/12/11 08:36:14;;;;;;;2.37;2.17;;;3.50;98.20;;;;;;5051318;28;20700;-72
2021/12/11 08:38:42;;;;;;;1.70;1.40;;;3.50;98.20;;;;;;5083063;28;20473;-72
2021/12/11 08:41:11;;;;;;;1.70;1.40;;;3.60;98.20;;;;;;5063271;28;20491;-72
2021/12/11 08:43:39;;;;;;;1.60;1.40;;;3.60;98.20;;;;;;5075610;28;20460;-72
2021/12/11 08:46:11;;;;;;;1.60;1.33;;;3.60;98.20;;;;;;5069516;28;20786;-72
2021/12/11 08:48:45;;;;;;;1.70;1.40;;;3.60;98.20;;;;;;5076272;28;21055;-72
2021/12/11 08:51:18;;;;;;;1.60;1.40;;;3.70;98.20;;;;;;5072095;27;20573;-72
2021/12/11 08:53:45;;;;;;;1.67;1.40;;;3.70;98.20;;;;;;5073624;28;20970;-72
2021/12/11 08:56:13;;;;;;;1.60;1.40;;;3.70;98.20;;;;;;5051529;28;20503;-73
2021/12/11 08:58:42;;;;;;;3.07;2.87;;;3.80;98.20;;;;;;5086269;28;20511;-73
2021/12/11 09:01:15;;;;;;;2.47;2.27;;;3.80;98.20;;;;;;5068495;28;20495;-73
2021/12/11 09:03:46;;;;;;;1.60;1.40;;;3.80;98.20;;;;;;5075467;28;20468;-73
2021/12/11 09:06:16;;;;;;;1.70;1.57;;;3.80;98.20;;;;;;5066197;28;20478;-73
2021/12/11 09:08:46;;;;;;;1.67;1.40;;;3.90;98.20;;;;;;5076478;28;20460;-73
2021/12/11 09:11:17;;;;;;;1.60;1.40;;;3.80;98.20;;;;;;5065931;28;20525;-73
2021/12/11 09:13:47;;;;;;;1.60;1.40;;;3.90;98.20;;;;;;5090680;28;20843;-73
2021/12/11 09:16:21;;;;;;;1.60;1.40;;;3.90;98.20;;;;;;5068468;27;20476;-73
2021/12/11 09:18:52;;;;;;;1.60;1.40;;;3.90;98.20;;;;;;5086101;28;20458;-74
2021/12/11 09:21:25;;;;;;;1.60;1.40;;;3.90;98.20;;;;;;5073755;27;20479;-74
2021/12/11 09:24:03;;;;;;;1.63;1.40;;;3.90;98.20;;;;;;5090392;28;21010;-74
2021/12/11 09:26:35;;;;;;;1.70;1.60;;;3.90;98.20;;;;;;5072457;28;20479;-74
2021/12/11 09:29:07;;;;;;;1.60;1.50;;;3.90;98.20;;;;;;5084945;28;20510;-74
2021/12/11 09:31:41;;;;;;;1.67;1.50;;;3.90;98.20;;;;;;5072330;28;20557;-74
2021/12/11 09:34:17;;;;;;;1.67;1.50;;;3.90;98.20;;;;;;5084351;28;20960;-73
2021/12/11 09:36:47;;;;;;;1.67;1.40;;;3.90;98.20;;;;;;5059787;28;20486;-73
2021/12/11 09:39:17;;;;;;;1.60;1.50;;;3.90;98.20;;;;;;5068748;28;20453;-73
2021/12/11 09:41:44;;;;;;;1.63;1.50;;;3.90;98.20;;;;;;5060798;28;20575;-74
2021/12/11 09:44:22;;;;;;;1.60;1.40;;;3.90;98.20;;;;;;5078216;28;20789;-74
2021/12/11 09:46:55;;;;;;;1.67;1.40;;;3.90;98.20;;;;;;5064958;28;20476;-74
2021/12/11 09:49:25;;;;;;;1.60;1.40;;;3.90;98.20;;;;;;5075396;28;21060;-73
2021/12/11 09:52:01;;;;;;;1.60;1.40;;;3.90;98.20;;;;;;5074344;27;20551;-72
2021/12/11 09:54:30;;;;;;;1.60;1.37;;;3.90;98.20;;;;;;5082148;28;20474;-73
2021/12/11 09:57:02;;;;;;;2.47;2.27;;;3.90;98.20;;;;;;5075044;28;20541;-73
2021/12/11 09:59:35;;;;;;;1.70;1.40;;;3.90;98.20;;;;;;5080427;28;20767;-73
2021/12/11 10:02:07;;;;;;;1.80;1.70;;;3.90;98.20;;;;;;5072698;28;20965;-73
2021/12/11 10:04:38;;;;;;;1.60;1.40;;;3.90;98.20;;;;;;5083102;28;20464;-73
2021/12/11 10:07:31;;;;;;;1.60;1.30;;;4.00;98.20;;;;;;5072620;27;20498;-73
2021/12/11 10:10:09;;;;;;;1.67;1.40;;;4.00;98.20;;;;;;5077654;28;20456;-73
2021/12/11 10:12:40;;;;;;;3.13;2.83;;;4.00;98.20;;;;;;5081303;28;20475;-73
2021/12/11 10:15:13;;;;;;;1.60;1.30;;;4.00;98.20;;;;;;5081394;28;20464;-73
2021/12/11 10:17:44;;;;;;;1.60;1.40;;;4.10;98.20;;;;;;5081046;28;20548;-73
2021/12/11 10:20:16;;;;;;;1.63;1.37;;;4.10;98.20;;;;;;5079511;28;20519;-72
2021/12/11 10:22:44;;;;;;;6.80;2.50;;;4.10;98.20;;;;;;5075112;28;20498;-73
2021/12/11 10:25:15;;;;;;;1.60;1.30;;;4.10;98.20;;;;;;5078684;28;21052;-73
2021/12/11 10:27:43;;;;;;;1.60;1.40;;;4.20;98.20;;;;;;5067534;28;21023;-73
2021/12/11 10:30:15;;;;;;;1.60;1.40;;;4.20;98.20;;;;;;5062860;28;21067;-73
2021/12/11 10:32:43;;;;;;;1.70;1.50;;;4.20;98.20;;;;;;5050990;28;20898;-73
2021/12/11 10:35:15;;;;;;;1.67;1.40;;;4.30;98.20;;;;;;5063993;28;20468;-73
2021/12/11 10:37:43;;;;;;;1.63;1.43;;;4.30;98.20;;;;;;5063220;28;21091;-73
2021/12/11 10:40:19;;;;;;;1.70;1.50;;;4.40;98.20;;;;;;5082451;28;20464;-74
2021/12/11 10:42:53;;;;;;;1.60;1.37;;;4.40;98.20;;;;;;5069562;27;20565;-74
2021/12/11 10:45:23;;;;;;;1.70;1.43;;;4.50;98.20;;;;;;5063611;28;20461;-75
2021/12/11 10:47:53;;;;;;;1.70;1.40;;;4.50;98.20;;;;;;5066918;28;20480;-75
2021/12/11 10:50:25;;;;;;;1.70;1.60;;;4.50;98.20;;;;;;5058269;28;20477;-75
2021/12/11 10:52:52;;;;;;;1.60;1.40;;;4.60;98.20;;;;;;5062637;28;20942;-74
2021/12/11 10:55:22;;;;;;;1.63;1.40;;;4.60;98.20;;;;;;5061085;28;20458;-75
2021/12/11 10:57:52;;;;;;;1.93;1.73;;;4.60;98.20;;;;;;5064528;28;20866;-75
2021/12/11 11:00:25;;;;;;;1.60;1.33;;;4.60;98.20;;;;;;5060169;28;20457;-76
2021/12/11 11:02:52;;;;;;;1.63;1.40;;;4.60;98.20;;;;;;5064364;28;20481;-75
2021/12/11 11:05:22;;;;;;;1.60;1.30;;;4.60;98.20;;;;;;5061710;28;20556;-75
2021/12/11 11:07:49;;;;;;;1.63;1.40;;;4.60;98.20;;;;;;5071541;28;21043;-74
2021/12/11 11:10:19;;;;;;;1.63;1.33;;;4.60;98.20;;;;;;5065721;28;20564;-74
2021/12/11 11:12:48;;;;;;;1.60;1.30;;;4.60;98.20;;;;;;5069555;28;20512;-74
2021/12/11 11:15:17;;;;;;;1.63;1.40;;;4.70;98.20;;;;;;5064398;28;20465;-73
2021/12/11 11:17:45;;;;;;;1.67;1.40;;;4.70;98.20;;;;;;5083066;28;20495;-73
2021/12/11 11:20:19;;;;;;;1.80;1.70;;;4.70;98.20;;;;;;5077956;28;20469;-74
2021/12/11 11:22:46;;;;;;;1.60;1.40;;;4.70;98.20;;;;;;5059570;28;20916;-74
2021/12/11 11:25:18;;;;;;;1.60;1.30;;;4.80;98.20;;;;;;5081698;28;20462;-74
2021/12/11 11:27:46;;;;;;;1.67;1.40;;;4.80;98.20;;;;;;5079799;28;20483;-74
2021/12/11 11:30:17;;;;;;;1.70;1.60;;;4.80;98.20;;;;;;5081982;28;20463;-76
2021/12/11 11:32:46;;;;;;;1.60;1.30;;;4.90;98.20;;;;;;5080667;28;20487;-76
2021/12/11 11:35:16;;;;;;;1.60;1.30;;;4.90;98.20;;;;;;5081489;28;20468;-77
2021/12/11 11:37:43;;;;;;;1.60;1.40;;;5.00;98.20;;;;;;5079899;28;20492;-76
2021/12/11 11:40:14;;;;;;;1.90;1.80;;;5.00;98.20;;;;;;5079822;28;20468;-76
2021/12/11 11:42:42;;;;;;;1.60;1.30;;;5.00;98.20;;;;;;5081766;28;20853;-77
2021/12/11 11:45:12;;;;;;;1.60;1.40;;;5.00;98.20;;;;;;5078954;28;20547;-76
2021/12/11 11:47:42;;;;;;;1.60;1.40;;;5.00;98.20;;;;;;5087634;28;20487;-76
2021/12/11 11:50:16;;;;;;;1.70;1.40;;;5.10;98.20;;;;;;5084149;28;20514;-75
2021/12/11 11:52:45;;;;;;;1.60;1.30;;;5.10;98.20;;;;;;5079733;28;20494;-76
2021/12/11 11:55:17;;;;;;;1.60;1.30;;;5.10;98.20;;;;;;5078770;28;20830;-76
2021/12/11 11:57:48;;;;;;;1.60;1.30;;;5.10;98.20;;;;;;5083728;28;20483;-75
2021/12/11 12:01:00;;;;;;;1.67;1.40;;;5.20;98.20;;;;;;5082357;28;20986;-77
2021/12/11 12:03:33;;;;;;;1.60;1.30;;;5.20;98.20;;;;;;5076056;28;21112;-76
2021/12/11 12:06:21;;;;;;;1.60;1.20;;;5.30;98.20;;;;;;5079148;28;20464;-76
2021/12/11 12:08:54;;;;;;;1.63;1.30;;;5.40;98.20;;;;;;5096907;28;20472;-76
2021/12/11 12:11:31;;;;;;;1.60;1.30;;;5.40;98.20;;;;;;5073878;28;20992;-76
2021/12/11 12:14:00;;;;;;;2.17;1.97;;;5.50;98.20;;;;;;5092263;28;21005;-75
2021/12/11 12:19:55;;;;;;;1.63;1.40;;;5.60;98.20;;;;;;5086169;28;20530;-74
2021/12/11 12:22:25;;;;;;;1.67;1.30;;;5.70;98.20;;;;;;5083404;28;21028;-74
2021/12/11 12:24:59;;;;;;;1.60;1.30;;;5.70;98.20;;;;;;5085829;28;20471;-75
2021/12/11 12:27:30;;;;;;;1.60;1.30;;;5.80;98.20;;;;;;5087581;28;20488;-75
2021/12/11 12:30:07;;;;;;;1.60;1.30;;;5.80;98.20;;;;;;5086466;28;20473;-75
2021/12/11 12:32:41;;;;;;;1.60;1.30;;;5.80;98.20;;;;;;5081960;28;20480;-75
2021/12/11 12:35:18;;;;;;;1.60;1.30;;;5.90;98.20;;;;;;5084496;28;20524;-76
2021/12/11 12:37:59;;;;;;;1.70;1.60;;;5.90;98.20;;;;;;5088358;27;20479;-73
2021/12/11 12:40:50;;;;;;;;;;;;;;;;;;;;;
2021/12/11 12:43:42;;;;;;;1.60;1.30;;;6.00;98.20;;;;;;5061881;28;20522;-74
2021/12/11 12:46:08;;;;;;;3.10;2.90;;;6.00;98.20;;;;;;5056202;28;21246;-75
2021/12/11 12:48:35;;;;;;;1.60;1.30;;;6.00;98.20;;;;;;5089689;28;20493;-75
2021/12/11 12:51:05;;;;;;;1.70;1.40;;;6.00;98.20;;;;;;5053874;28;20516;-75
2021/12/11 12:53:36;;;;;;;1.60;1.30;;;6.00;98.20;;;;;;5090835;27;20512;-75
2021/12/11 12:56:09;;;;;;;1.60;1.30;;;6.00;98.20;;;;;;5057087;28;20465;-75
2021/12/11 12:58:42;;;;;;;1.60;1.30;;;6.10;98.20;;;;;;5091988;27;20469;-73
2021/12/11 13:01:13;;;;;;;1.60;1.30;;;6.00;98.20;;;;;;5054641;28;20763;-73
2021/12/11 13:03:42;;;;;;;1.60;1.23;;;6.10;98.20;;;;;;5075678;28;20482;-74
2021/12/11 13:06:15;;;;;;;1.60;1.30;;;6.10;98.20;;;;;;5059281;28;20486;-74
2021/12/11 13:08:47;;;;;;;1.60;1.30;;;6.10;98.20;;;;;;5087083;28;21221;-73
2021/12/11 13:11:17;;;;;;;1.60;1.30;;;6.20;98.20;;;;;;5057896;27;20475;-74
2021/12/11 13:13:47;;;;;;;1.60;1.30;;;6.20;98.20;;;;;;5088600;27;20472;-75
2021/12/11 13:16:19;;;;;;;1.60;1.30;;;6.20;98.20;;;;;;5058518;28;20475;-74
2021/12/11 13:18:52;;;;;;;1.60;1.30;;;6.30;98.20;;;;;;5086044;27;20461;-74
2021/12/11 13:21:23;;;;;;;1.60;1.40;;;6.30;98.20;;;;;;5063514;28;20471;-75